Seattle, Washington
Traffic Map
Current Weather Conditions
Seattle, Washington
Overcast
Overcast
12°
Feels Like: 12°
Wind Chill: 12° Ceiling: 2400
Heat Index: 12° Visibility: 10mi
Dew Point: Wind: 12mph
Humidity: 64% Direction: 180° (S)
Pressure: 29.9in Gusts: 0mph
Raw Report DataKBFI 231953Z 18010KT 10SM BKN024 BKN043 OVC090 12/05 A2990 RMK AO2 SLP126 T01170050
Traffic Incident Summary
Active as of:
Severity:
Category:
InformationThere was an issue retrieving the traffic information for this location. Please try a different location or try again shortly.
Advertisements
At Last! Intellicast now available for iPhone and Android